createdAt,value
2019-03-22T00:00:45.617Z,48.60
2019-03-22T00:03:15.171Z,49.20
2019-03-22T00:05:45.780Z,48.50
2019-03-22T00:08:33.200Z,48.70
2019-03-22T00:11:03.451Z,48.70
2019-03-22T00:13:39.067Z,48.50
2019-03-22T00:16:20.355Z,48.50
2019-03-22T00:18:58.896Z,48.30
2019-03-22T00:21:48.862Z,48.30
2019-03-22T00:24:22.096Z,48.20
2019-03-22T00:26:54.753Z,48.20
2019-03-22T00:29:26.380Z,48.10
2019-03-22T00:31:55.825Z,48.20
2019-03-22T00:34:42.034Z,48.20
2019-03-22T00:37:11.736Z,48.20
2019-03-22T00:39:42.983Z,48.20
2019-03-22T00:42:13.186Z,48.20
2019-03-22T00:44:42.631Z,48.10
2019-03-22T00:47:41.867Z,48.10
2019-03-22T00:50:11.563Z,48.10
2019-03-22T00:52:43.437Z,48.10
2019-03-22T00:55:13.431Z,48.20
2019-03-22T00:57:43.852Z,48.20
2019-03-22T01:00:19.415Z,48.20
2019-03-22T01:02:48.723Z,48.20
2019-03-22T01:05:18.738Z,48.20
2019-03-22T01:07:48.296Z,48.30
2019-03-22T01:10:17.735Z,48.20
2019-03-22T01:12:47.315Z,48.20
2019-03-22T01:15:18.313Z,48.30
2019-03-22T01:17:49.891Z,48.80
2019-03-22T01:20:25.569Z,48.30
2019-03-22T01:22:57.250Z,48.20
2019-03-22T01:25:32.867Z,48.10
2019-03-22T01:28:03.621Z,48.20
2019-03-22T01:33:21.974Z,48.10
2019-03-22T01:35:53.117Z,48.20
2019-03-22T01:38:46.782Z,48.20
2019-03-22T01:41:17.914Z,48.30
2019-03-22T01:44:16.058Z,48.30
2019-03-22T01:47:04.487Z,48.20
2019-03-22T01:52:20.903Z,48.40
2019-03-22T01:54:50.453Z,48.40
2019-03-22T01:57:20.105Z,48.40
2019-03-22T01:59:53.119Z,48.50
2019-03-22T02:02:45.962Z,48.50
2019-03-22T02:05:15.572Z,48.40
2019-03-22T02:07:46.821Z,48.50
2019-03-22T02:10:18.304Z,48.70
2019-03-22T02:12:47.679Z,48.50
2019-03-22T02:15:23.275Z,48.40
2019-03-22T02:17:55.606Z,48.40
2019-03-22T02:23:21.619Z,48.30
2019-03-22T02:25:57.735Z,48.20
2019-03-22T02:28:30.582Z,48.30
2019-03-22T02:30:59.992Z,48.30
2019-03-22T02:36:25.590Z,48.20
2019-03-22T02:38:55.571Z,48.20
2019-03-22T02:41:27.143Z,48.30
2019-03-22T02:43:57.621Z,48.20
2019-03-22T02:46:26.971Z,48.20
2019-03-22T02:48:57.094Z,48.20
2019-03-22T02:51:35.669Z,48.20
2019-03-22T02:54:06.257Z,48.30
2019-03-22T02:56:39.362Z,48.40
2019-03-22T02:59:08.779Z,48.40
2019-03-22T03:01:39.176Z,48.50
2019-03-22T03:04:26.223Z,48.50
2019-03-22T03:06:56.588Z,48.50
2019-03-22T03:09:27.657Z,48.50
2019-03-22T03:14:46.055Z,48.50
2019-03-22T03:17:45.010Z,48.60
2019-03-22T03:20:29.444Z,48.50
2019-03-22T03:23:01.530Z,48.50
2019-03-22T03:25:33.629Z,48.60
2019-03-22T03:28:04.156Z,48.70
2019-03-22T03:30:38.288Z,48.70
2019-03-22T03:35:57.858Z,48.60
2019-03-22T03:38:32.065Z,48.10
2019-03-22T03:41:19.015Z,48.50
2019-03-22T03:43:48.451Z,48.40
2019-03-22T03:46:20.145Z,49.10
2019-03-22T03:48:51.689Z,48.50
2019-03-22T03:51:25.703Z,48.50
2019-03-22T03:53:55.208Z,48.60
2019-03-22T03:56:34.611Z,48.50
2019-03-22T03:59:03.980Z,48.70
2019-03-22T04:01:36.466Z,48.60
2019-03-22T04:04:08.589Z,48.50
2019-03-22T04:06:38.095Z,48.50
2019-03-22T04:09:09.227Z,48.50
2019-03-22T04:11:41.172Z,48.50
2019-03-22T04:14:26.034Z,48.50
2019-03-22T04:16:57.639Z,48.40
2019-03-22T04:19:28.073Z,48.40
2019-03-22T04:22:02.162Z,48.30
2019-03-22T04:24:37.944Z,48.40
2019-03-22T04:27:09.227Z,48.40
2019-03-22T04:29:38.582Z,48.40
2019-03-22T04:32:08.014Z,48.50
2019-03-22T04:34:37.861Z,48.50
2019-03-22T04:37:07.204Z,48.50
2019-03-22T04:39:37.515Z,48.50
2019-03-22T04:44:59.178Z,48.40
2019-03-22T04:47:30.615Z,48.40
2019-03-22T04:50:00.558Z,48.30
2019-03-22T04:52:39.608Z,48.40
2019-03-22T04:55:11.198Z,48.40
2019-03-22T04:57:40.875Z,48.50
2019-03-22T05:00:49.511Z,48.50
2019-03-22T05:03:19.159Z,48.50
2019-03-22T05:05:48.592Z,48.50
2019-03-22T05:08:25.579Z,48.50
2019-03-22T05:10:55.446Z,48.40
2019-03-22T05:13:32.725Z,48.50
2019-03-22T05:19:00.279Z,48.40
2019-03-22T05:21:32.582Z,48.40
2019-03-22T05:24:12.349Z,48.50
2019-03-22T05:26:43.491Z,48.60
2019-03-22T05:29:12.896Z,48.50
2019-03-22T05:32:19.555Z,48.60
2019-03-22T05:34:48.977Z,48.70
2019-03-22T05:37:33.963Z,48.70
2019-03-22T05:42:52.099Z,48.50
2019-03-22T05:45:25.134Z,48.60
2019-03-22T05:47:54.560Z,48.60
2019-03-22T05:50:24.310Z,48.70
2019-03-22T05:52:53.726Z,48.10
2019-03-22T05:55:25.479Z,48.50
2019-03-22T05:57:55.295Z,48.70
2019-03-22T06:00:28.084Z,48.50
2019-03-22T06:03:00.272Z,48.50
2019-03-22T06:05:34.698Z,48.50
2019-03-22T06:08:04.052Z,48.60
2019-03-22T06:10:39.376Z,48.60
2019-03-22T06:13:12.195Z,48.70
2019-03-22T06:15:43.354Z,48.50
2019-03-22T06:18:15.772Z,48.60
2019-03-22T06:20:50.178Z,48.60
2019-03-22T06:23:24.168Z,49.10
2019-03-22T06:28:32.575Z,48.60
2019-03-22T06:31:08.188Z,48.60
2019-03-22T06:33:37.532Z,48.50
2019-03-22T06:36:07.891Z,48.50
2019-03-22T06:38:37.593Z,48.70
2019-03-22T06:41:10.408Z,48.70
2019-03-22T06:43:46.159Z,48.70
2019-03-22T06:46:58.709Z,48.60
2019-03-22T06:49:28.359Z,48.70
2019-03-22T06:52:19.583Z,48.60
2019-03-22T06:54:52.539Z,48.70
2019-03-22T06:57:21.868Z,48.70
2019-03-22T07:00:06.330Z,48.70
2019-03-22T07:02:39.064Z,48.80
2019-03-22T07:05:09.591Z,48.90
2019-03-22T07:08:01.038Z,48.80
2019-03-22T07:10:39.005Z,49.00
2019-03-22T07:13:12.269Z,48.90
2019-03-22T07:15:44.127Z,48.90
2019-03-22T07:18:15.359Z,49.00
2019-03-22T07:20:47.289Z,49.00
2019-03-22T07:23:19.473Z,48.90
2019-03-22T07:25:57.685Z,48.90
2019-03-22T07:28:27.960Z,48.90
2019-03-22T07:31:00.389Z,49.00
2019-03-22T07:33:31.899Z,49.00
2019-03-22T07:36:02.534Z,49.10
2019-03-22T07:38:34.852Z,49.10
2019-03-22T07:41:06.432Z,49.00
2019-03-22T07:43:39.735Z,49.00
2019-03-22T07:46:10.439Z,49.00
2019-03-22T07:48:46.788Z,49.20
2019-03-22T07:51:24.146Z,49.20
2019-03-22T07:53:55.018Z,49.30
2019-03-22T07:56:28.262Z,49.50
2019-03-22T07:59:03.290Z,49.60
2019-03-22T08:01:31.551Z,49.80
2019-03-22T08:04:04.095Z,49.80
2019-03-22T08:06:41.230Z,50.00
2019-03-22T08:09:14.730Z,50.10
2019-03-22T08:11:48.651Z,50.30
2019-03-22T08:14:21.515Z,50.20
2019-03-22T08:16:52.277Z,50.10
2019-03-22T08:19:32.845Z,50.10
2019-03-22T08:22:06.547Z,50.00
2019-03-22T08:24:47.231Z,50.10
2019-03-22T08:27:23.847Z,50.10
2019-03-22T08:29:57.701Z,50.00
2019-03-22T08:32:35.029Z,50.10
2019-03-22T08:35:06.464Z,50.00
2019-03-22T08:37:36.977Z,49.90
2019-03-22T08:40:28.704Z,49.80
2019-03-22T08:42:59.595Z,49.80
2019-03-22T08:45:31.258Z,49.80
2019-03-22T08:48:01.124Z,49.80
2019-03-22T08:50:31.883Z,49.70
2019-03-22T08:56:01.029Z,49.60
2019-03-22T08:58:49.950Z,49.60
2019-03-22T09:01:23.449Z,49.60
2019-03-22T09:03:54.402Z,49.50
2019-03-22T09:06:46.275Z,49.50
2019-03-22T09:09:22.328Z,49.50
2019-03-22T09:11:53.063Z,49.40
2019-03-22T09:14:28.877Z,49.50
2019-03-22T09:16:59.413Z,49.50
2019-03-22T09:19:32.216Z,49.40
2019-03-22T09:22:05.806Z,49.40
2019-03-22T09:24:39.449Z,49.40
2019-03-22T09:27:11.685Z,49.30
2019-03-22T09:29:47.795Z,49.30
2019-03-22T09:32:18.307Z,49.30
2019-03-22T09:34:50.638Z,49.30
2019-03-22T09:37:23.537Z,49.20
2019-03-22T09:39:55.426Z,49.20
2019-03-22T09:42:33.148Z,49.20
2019-03-22T09:45:28.129Z,49.20
2019-03-22T09:47:58.768Z,49.20
2019-03-22T09:50:28.379Z,49.20
2019-03-22T09:53:01.736Z,49.20
2019-03-22T09:55:36.751Z,49.10
2019-03-22T09:58:07.384Z,49.10
2019-03-22T10:06:36.197Z,49.10
2019-03-22T10:09:10.961Z,49.10
2019-03-22T10:11:40.934Z,49.00
2019-03-22T10:14:14.699Z,49.10
2019-03-22T10:16:47.918Z,48.90
2019-03-22T10:19:21.122Z,48.90
2019-03-22T10:21:51.464Z,48.90
2019-03-22T10:24:24.246Z,48.90
2019-03-22T10:26:54.714Z,48.90
2019-03-22T10:29:31.677Z,48.80
2019-03-22T10:32:12.039Z,48.80
2019-03-22T10:34:42.102Z,48.80
2019-03-22T10:37:12.717Z,48.80
2019-03-22T10:39:46.611Z,48.80
2019-03-22T10:42:17.804Z,48.70
2019-03-22T10:44:49.773Z,48.80
2019-03-22T10:50:32.461Z,48.70
2019-03-22T10:53:05.170Z,48.70
2019-03-22T10:55:36.326Z,48.70
2019-03-22T10:58:21.107Z,48.80
2019-03-22T11:00:52.580Z,48.70
2019-03-22T11:03:30.396Z,48.70
2019-03-22T11:06:00.656Z,48.70
2019-03-22T11:08:35.827Z,48.80
2019-03-22T11:11:10.859Z,48.70
2019-03-22T11:13:45.475Z,48.70
2019-03-22T11:16:18.327Z,48.70
2019-03-22T11:18:48.105Z,48.70
2019-03-22T11:21:37.843Z,48.80
2019-03-22T11:24:14.434Z,49.40
2019-03-22T11:26:46.628Z,48.80
2019-03-22T11:29:20.404Z,49.10
2019-03-22T11:31:51.835Z,48.80
2019-03-22T11:34:21.825Z,48.70
2019-03-22T11:36:57.262Z,48.70
2019-03-22T11:39:48.106Z,48.80
2019-03-22T11:42:21.233Z,49.40
2019-03-22T11:44:51.938Z,48.70
2019-03-22T11:47:24.279Z,48.80
2019-03-22T11:49:56.409Z,48.70
2019-03-22T11:52:27.503Z,48.60
2019-03-22T11:55:11.722Z,48.60
2019-03-22T11:57:59.788Z,48.50
2019-03-22T12:00:32.941Z,48.50
2019-03-22T12:03:32.783Z,48.50
2019-03-22T12:06:03.013Z,48.50
2019-03-22T12:08:33.869Z,48.50
2019-03-22T12:11:05.059Z,48.60
2019-03-22T12:16:17.973Z,48.70
2019-03-22T12:18:50.495Z,48.70
2019-03-22T12:21:23.678Z,48.80
2019-03-22T12:23:54.544Z,48.80
2019-03-22T12:26:30.884Z,48.90
2019-03-22T12:29:00.961Z,48.90
2019-03-22T12:31:34.320Z,49.10
2019-03-22T12:34:04.298Z,48.90
2019-03-22T12:36:35.228Z,49.00
2019-03-22T12:39:09.382Z,49.10
2019-03-22T12:41:55.282Z,49.10
2019-03-22T12:44:45.829Z,49.20
2019-03-22T12:47:18.659Z,49.20
2019-03-22T12:49:49.195Z,49.20
2019-03-22T12:52:38.641Z,49.20
2019-03-22T12:55:08.882Z,49.30
2019-03-22T12:57:41.001Z,49.40
2019-03-22T13:00:13.681Z,49.40
2019-03-22T13:02:44.786Z,49.50
2019-03-22T13:05:14.651Z,49.60
2019-03-22T13:07:47.906Z,49.60
2019-03-22T13:10:19.570Z,49.70
2019-03-22T13:12:50.092Z,49.70
2019-03-22T13:15:23.098Z,49.80
2019-03-22T13:18:02.903Z,49.80
2019-03-22T13:20:34.047Z,49.80
2019-03-22T13:23:03.858Z,49.80
2019-03-22T13:25:33.792Z,49.80
2019-03-22T13:28:07.292Z,49.90
2019-03-22T13:30:49.717Z,49.80
2019-03-22T13:33:30.049Z,49.80
2019-03-22T13:36:06.996Z,49.80
2019-03-22T13:38:37.995Z,49.80
2019-03-22T13:41:18.553Z,49.80
2019-03-22T13:43:48.892Z,49.90
2019-03-22T13:46:22.058Z,49.90
2019-03-22T13:48:57.351Z,49.90
2019-03-22T13:51:29.429Z,49.90
2019-03-22T13:54:19.401Z,49.80
2019-03-22T13:56:49.714Z,49.80
2019-03-22T13:59:38.953Z,49.70
2019-03-22T14:02:13.939Z,49.70
2019-03-22T14:04:48.186Z,49.70
2019-03-22T14:07:18.729Z,49.70
2019-03-22T14:10:09.034Z,49.60
2019-03-22T14:12:39.521Z,49.60
2019-03-22T14:15:11.892Z,49.80
2019-03-22T14:17:45.599Z,49.80
2019-03-22T14:20:15.397Z,49.70
2019-03-22T14:22:49.858Z,49.60
2019-03-22T14:25:22.520Z,49.60
2019-03-22T14:27:58.202Z,49.60
2019-03-22T14:30:29.162Z,49.70
2019-03-22T14:33:00.708Z,49.60
2019-03-22T14:35:30.542Z,49.70
2019-03-22T14:38:03.410Z,49.70
2019-03-22T14:40:52.269Z,49.70
2019-03-22T14:43:22.309Z,49.70
2019-03-22T14:45:53.487Z,49.70
2019-03-22T14:48:26.585Z,49.80
2019-03-22T14:50:57.328Z,49.80
2019-03-22T14:53:28.131Z,49.80
2019-03-22T14:55:58.930Z,49.70
2019-03-22T14:58:33.053Z,49.70
2019-03-22T15:01:03.109Z,49.70
2019-03-22T15:03:36.176Z,49.70
2019-03-22T15:06:06.272Z,49.70
2019-03-22T15:08:56.515Z,49.70
2019-03-22T15:11:32.842Z,49.70
2019-03-22T15:14:29.482Z,49.70
2019-03-22T15:17:20.798Z,49.70
2019-03-22T15:20:18.684Z,49.80
2019-03-22T15:23:09.092Z,49.90
2019-03-22T15:26:05.115Z,49.80
2019-03-22T15:28:54.548Z,49.90
2019-03-22T15:31:56.171Z,49.90
2019-03-22T15:34:45.187Z,49.90
2019-03-22T15:37:37.119Z,49.90
2019-03-22T15:40:07.862Z,49.90
2019-03-22T15:43:01.868Z,49.90
2019-03-22T15:45:32.329Z,49.80
2019-03-22T15:48:09.533Z,49.80
2019-03-22T15:50:47.461Z,49.90
2019-03-22T15:53:18.194Z,49.80
2019-03-22T15:55:50.687Z,50.00
2019-03-22T15:58:30.903Z,49.80
2019-03-22T16:01:03.978Z,49.80
2019-03-22T16:03:43.955Z,49.70
2019-03-22T16:06:10.183Z,49.70
2019-03-22T16:08:41.828Z,49.80
2019-03-22T16:11:33.629Z,49.70
2019-03-22T16:14:06.483Z,49.70
2019-03-22T16:16:37.593Z,49.60
2019-03-22T16:19:11.666Z,49.60
2019-03-22T16:21:42.666Z,49.60
2019-03-22T16:24:13.142Z,49.60
2019-03-22T16:26:45.171Z,49.80
2019-03-22T16:29:16.053Z,49.60
2019-03-22T16:31:46.047Z,49.40
2019-03-22T16:34:17.658Z,49.40
2019-03-22T16:36:52.910Z,49.50
2019-03-22T16:39:27.218Z,49.40
2019-03-22T16:42:00.556Z,49.40
2019-03-22T16:44:43.806Z,49.50
2019-03-22T16:47:17.466Z,49.40
2019-03-22T16:49:57.343Z,49.40
2019-03-22T16:52:32.534Z,49.50
2019-03-22T16:55:04.627Z,49.40
2019-03-22T16:57:37.339Z,49.50
2019-03-22T17:00:11.654Z,49.60
2019-03-22T17:03:00.565Z,49.60
2019-03-22T17:05:44.693Z,49.60
2019-03-22T17:08:17.063Z,49.70
2019-03-22T17:10:51.095Z,49.70
2019-03-22T17:13:26.506Z,49.80
2019-03-22T17:16:01.967Z,49.70
2019-03-22T17:18:36.692Z,49.70
2019-03-22T17:21:14.939Z,49.80
2019-03-22T17:23:59.868Z,49.80
2019-03-22T17:26:35.496Z,50.60
2019-03-22T17:29:16.537Z,49.80
2019-03-22T17:31:46.745Z,49.80
2019-03-22T17:34:19.102Z,49.80
2019-03-22T17:36:49.222Z,49.80
2019-03-22T17:39:22.851Z,49.70
2019-03-22T17:42:17.080Z,49.80
2019-03-22T17:44:51.771Z,49.70
2019-03-22T17:47:32.214Z,49.70
2019-03-22T17:50:16.193Z,49.70
2019-03-22T17:52:46.356Z,49.60
2019-03-22T17:55:18.918Z,49.60
2019-03-22T17:57:53.809Z,49.60
2019-03-22T18:00:34.374Z,49.60
2019-03-22T18:03:07.023Z,50.20
2019-03-22T18:05:37.904Z,49.60
2019-03-22T18:08:17.343Z,49.50
2019-03-22T18:11:13.109Z,49.50
2019-03-22T18:13:47.968Z,49.50
2019-03-22T18:16:27.903Z,49.40
2019-03-22T18:19:06.381Z,49.40
2019-03-22T18:21:43.212Z,49.40
2019-03-22T18:24:30.604Z,49.30
2019-03-22T18:27:04.270Z,49.40
2019-03-22T18:29:38.838Z,49.30
2019-03-22T18:32:28.119Z,49.20
2019-03-22T18:35:00.534Z,49.20
2019-03-22T18:37:40.021Z,49.10
2019-03-22T18:40:10.173Z,49.10
2019-03-22T18:42:56.803Z,49.10
2019-03-22T18:45:48.357Z,49.00
2019-03-22T18:48:21.321Z,49.00
2019-03-22T18:50:56.971Z,48.90
2019-03-22T18:53:32.661Z,48.90
2019-03-22T18:56:03.739Z,48.90
2019-03-22T18:58:35.913Z,48.80
2019-03-22T19:01:11.148Z,48.80
2019-03-22T19:03:41.419Z,48.80
2019-03-22T19:06:21.848Z,48.70
2019-03-22T19:08:55.855Z,48.70
2019-03-22T19:11:27.623Z,48.70
2019-03-22T19:14:00.616Z,48.60
2019-03-22T19:16:43.713Z,48.70
2019-03-22T19:19:19.295Z,48.60
2019-03-22T19:22:08.407Z,48.60
2019-03-22T19:24:55.583Z,48.60
2019-03-22T19:27:35.020Z,48.70
2019-03-22T19:30:10.660Z,48.60
2019-03-22T19:32:52.382Z,48.70
2019-03-22T19:35:23.662Z,48.50
2019-03-22T19:37:54.296Z,48.60
2019-03-22T19:40:25.715Z,48.60
2019-03-22T19:43:00.224Z,48.60
2019-03-22T19:45:42.175Z,48.50
2019-03-22T19:48:15.195Z,48.50
2019-03-22T19:50:49.054Z,48.40
2019-03-22T19:53:19.716Z,48.40
2019-03-22T19:55:53.184Z,48.40
2019-03-22T19:58:29.704Z,48.40
2019-03-22T20:01:10.023Z,48.90
2019-03-22T20:04:01.621Z,48.40
2019-03-22T20:06:47.915Z,48.50
2019-03-22T20:09:20.106Z,48.40
2019-03-22T20:12:00.961Z,48.40
2019-03-22T20:14:36.651Z,48.30
2019-03-22T20:17:11.351Z,48.30
2019-03-22T20:19:42.169Z,48.30
2019-03-22T20:22:13.259Z,48.30
2019-03-22T20:24:48.969Z,48.20
2019-03-22T20:27:58.058Z,48.20
2019-03-22T20:30:41.993Z,48.30
2019-03-22T20:33:12.675Z,48.20
2019-03-22T20:35:44.951Z,48.20
2019-03-22T20:38:18.762Z,48.20
2019-03-22T20:40:51.913Z,48.20
2019-03-22T20:43:28.064Z,48.20
2019-03-22T20:46:03.110Z,48.20
2019-03-22T20:48:41.100Z,48.20
2019-03-22T20:51:51.909Z,48.30
2019-03-22T20:54:21.552Z,48.30
2019-03-22T20:56:57.275Z,48.30
2019-03-22T20:59:42.676Z,48.40
2019-03-22T21:02:14.376Z,48.40
2019-03-22T21:04:49.200Z,48.30
2019-03-22T21:07:20.718Z,48.30
2019-03-22T21:09:51.345Z,48.70
2019-03-22T21:12:21.290Z,48.20
2019-03-22T21:14:56.015Z,48.30
2019-03-22T21:17:26.611Z,48.20
2019-03-22T21:19:57.967Z,48.20
2019-03-22T21:22:36.882Z,48.30
2019-03-22T21:25:13.476Z,48.50
2019-03-22T21:27:49.779Z,48.60
2019-03-22T21:30:22.528Z,48.30
2019-03-22T21:32:58.417Z,48.30
2019-03-22T21:35:37.191Z,48.40
2019-03-22T21:38:10.723Z,48.40
2019-03-22T21:40:41.686Z,48.50
2019-03-22T21:43:36.880Z,48.50
2019-03-22T21:46:10.254Z,48.40
2019-03-22T21:48:42.787Z,48.60
2019-03-22T21:51:18.144Z,48.50
2019-03-22T21:53:53.634Z,48.40
2019-03-22T21:56:25.476Z,48.40
2019-03-22T21:59:34.626Z,48.40
2019-03-22T22:01:38.144Z,48.30
2019-03-22T22:04:13.387Z,48.30
2019-03-22T22:06:52.776Z,48.30
2019-03-22T22:09:40.783Z,48.40
2019-03-22T22:12:00.769Z,48.50
2019-03-22T22:14:40.778Z,48.40
2019-03-22T22:17:06.220Z,48.20
2019-03-22T22:19:43.148Z,48.30
2019-03-22T22:22:38.113Z,48.40
2019-03-22T22:25:05.692Z,48.50
2019-03-22T22:27:41.726Z,48.60
2019-03-22T22:30:14.960Z,48.90
2019-03-22T22:32:49.612Z,48.90
2019-03-22T22:35:27.883Z,49.00
2019-03-22T22:38:05.659Z,49.10
2019-03-22T22:40:42.143Z,49.20
2019-03-22T22:43:20.276Z,49.20
2019-03-22T22:45:52.361Z,49.60
2019-03-22T22:48:22.720Z,49.30
2019-03-22T22:50:55.854Z,49.30
2019-03-22T22:53:31.411Z,49.30
2019-03-22T22:56:17.249Z,49.30
2019-03-22T22:58:50.035Z,49.20
2019-03-22T23:01:32.898Z,49.10
2019-03-22T23:04:04.136Z,49.10
2019-03-22T23:06:37.257Z,48.90
2019-03-22T23:09:17.067Z,48.90
2019-03-22T23:11:51.589Z,48.80
2019-03-22T23:14:24.861Z,48.80
2019-03-22T23:16:58.063Z,48.80
2019-03-22T23:19:28.365Z,48.70
2019-03-22T23:22:14.537Z,48.70
2019-03-22T23:24:49.821Z,48.80
2019-03-22T23:27:26.526Z,48.90
2019-03-22T23:30:08.183Z,48.80
2019-03-22T23:33:07.026Z,48.80
2019-03-22T23:35:40.157Z,48.80
2019-03-22T23:38:18.453Z,48.80
2019-03-22T23:41:14.401Z,48.90
2019-03-22T23:43:53.363Z,48.70
2019-03-22T23:46:26.858Z,48.70
2019-03-22T23:48:59.348Z,48.60
2019-03-22T23:51:36.684Z,48.70
2019-03-22T23:54:11.443Z,48.80
2019-03-22T23:57:02.118Z,48.70
2019-03-22T23:59:33.480Z,48.80
